Aviation Digital Data Service (ADDS)

Output produced by TAFs form (0811 UTC 18 November 2017)
found at http://aviationweather.gov/adds/tafs/
 
KMTJ 180548Z 1806/1906 29007KT P6SM VCSH SCT040 OVC070 
     FM180700 28007KT P6SM SCT070 BKN110 
     FM181000 14005KT P6SM SKC 
     FM181800 35004KT P6SM SKC 
     FM190100 15009KT P6SM SKC